This is the latest recevied weather packets stored in our database for station/object DM1MT. If no packets are shown the sender has not sent any weather packets the latest 10 day(s).
| Time | Temp. | Humidity | Pressure | Rain* | Wind** | Luminosity | Snow |
|---|---|---|---|---|---|---|---|
| 1777678119 | 13.89° C | 54% | 1014.9 hPa | 0 mm | - | 0 W/m² | - |
| 1777670923 | 13.89° C | 57% | 1014.8 hPa | 0 mm | - | 0 W/m² | - |
| 1777670248 | 14.44° C | 56% | 1014.8 hPa | 0 mm | - | 0 W/m² | - |
| 1777669739 | 15° C | 56% | 1014.8 hPa | 0 mm | - | 0 W/m² | - |
| 1777669119 | 15° C | 55% | 1014.8 hPa | 0 mm | - | 0 W/m² | - |
| 1777663760 | 18.33° C | 45% | 1014.7 hPa | 0 mm | - | 0 W/m² | - |
| 1777662445 | 19.44° C | 43% | 1014.9 hPa | 0 mm | - | 0 W/m² | - |
| 1777654079 | 23.89° C | 30% | 1014.7 hPa | 0 mm | - | 242 W/m² | - |
| 1777653579 | 23.89° C | 29% | 1014.7 hPa | 0 mm | - | 256 W/m² | - |
| 1777648099 | 24.44° C | 28% | 1015.5 hPa | 0 mm | - | 337 W/m² | - |
| 1777646286 | 23.89° C | 28% | 1015.7 hPa | 0 mm | - | 344 W/m² | - |
| 1777644539 | 23.89° C | 28% | 1016 hPa | 0 mm | - | 358 W/m² | - |
| 1777642905 | 23.33° C | 27% | 1016.5 hPa | 0 mm | - | 327 W/m² | - |
| 1777640899 | 22.78° C | 27% | 1016.7 hPa | 0 mm | - | 370 W/m² | - |
| 1777640297 | 22.78° C | 26% | 1016.8 hPa | 0 mm | - | 370 W/m² | - |
| 1777639682 | 22.78° C | 28% | 1017.2 hPa | 0 mm | - | 372 W/m² | - |
| 1777639186 | 22.22° C | 29% | 1017.1 hPa | 0 mm | - | 373 W/m² | - |
| 1777631326 | 19.44° C | 32% | 1018.5 hPa | 0 mm | - | 335 W/m² | - |
| 1777630723 | 18.89° C | 32% | 1018.5 hPa | 0 mm | - | 331 W/m² | - |
| 1777628298 | 18.33° C | 32% | 1018.9 hPa | 0 mm | - | 310 W/m² | - |
| 1777627179 | 18.33° C | 32% | 1019.1 hPa | 0 mm | - | 292 W/m² | - |
| 1777626464 | 18.33° C | 33% | 1019.2 hPa | 0 mm | - | 282 W/m² | - |
| 1777625965 | 17.78° C | 34% | 1019.2 hPa | 0 mm | - | 275 W/m² | - |
| 1777625286 | 17.22° C | 33% | 1019.1 hPa | 0 mm | - | 262 W/m² | - |
| 1777622298 | 16.11° C | 38% | 1019.4 hPa | 0 mm | - | 195 W/m² | - |
* Rain latest hour (hover to see other rain measurements)
** Current wind speed in m/s (hover to see current wind gust speed)